Tiempo atmosférico en la estación meteorológica de Pedrosa Del Príncipe, Burgos (771 m.)



Fecha
DESCASC
Temp. máxima en grados centígrados (hora)
DESCASC
Temp. mínima en grados centígrados (hora)
DESCASC
Temp. media en grados centígrados
DESCASC
Racha de viento máxima en m/sg (hora)
DESCASC
Velocidad máxima media en intervalos de 10 minutos(hora)
DESCASC
Precipitaciones diarias en mm
DESCASC
Precipitaciones de 00:00 a 06:00 en mm
DESCASC
Precipitaciones de 06:00 a 12:00 en mm
DESCASC
Precipitaciones de 12:00 a 18:00 en mm
DESCASC
Precipitaciones de 18:00 a 24:00 en mm
DESCASC
28-02-2021 10.7 (15:40) -0.3 (06:00) 5.2 9.17 (01:00) 5.56 (01:00) 0.4 0 0 0 0.4
27-02-2021 14.3 (15:50) 1.7 (23:59) 8 11.39 (11:20) 6.67 (11:10) 0 0 0 0 0
26-02-2021 13.9 (15:10) 4.9 (23:59) 9.4 9.44 (15:50) 6.11 (19:30) 0 0 0 0 0
25-02-2021 14.2 (15:20) 5 (00:00) 9.6 8.89 (20:20) 5.56 (20:20) 0 0 0 0 0
24-02-2021 16.8 (16:20) 0.6 (00:00) 8.7 11.67 (16:40) 6.39 (16:50) 0 0 0 0 0
23-02-2021 13.9 (16:30) -1.3 (-00:0) 6.3 6.67 (11:50) 3.89 (16:40) 0 0 0 0 0
22-02-2021 10.3 (15:00) 2.3 (00:00) 6.3 6.94 (00:10) 4.17 (00:10) 7 6.4 0.4 0.2 0
21-02-2021 11.8 (00:20) 4.8 (00:00) 8.3 11.67 (03:50) 6.39 (07:30) 6.6 0 0 1.8 4.8
20-02-2021 14.2 (12:40) 4.4 (00:00) 9.3 14.17 (13:30) 8.33 (13:30) 0 0 0 0 0
19-02-2021 15.8 (16:00) 6.5 (00:00) 11.2 13.61 (15:20) 7.22 (15:50) 0.2 0.2 0 0 0
18-02-2021 12.9 (15:30) 7.1 (00:00) 10 14.17 (13:30) 8.06 (15:30) 1 0 0 0 1
17-02-2021 12.4 (14:40) 6 (00:00) 9.2 9.17 (14:50) 5.28 (14:50) 0.2 0.2 0 0 0
16-02-2021 13.6 (13:10) 5 (00:00) 9.3 14.17 (12:40) 8.06 (13:40) 0.8 0 0 0 0.8
15-02-2021 16.4 (15:30) 4.6 (00:00) 10.5 6.67 (23:40) 3.61 (23:00) 0 0 0 0 0
14-02-2021 13.8 (16:30) -0.7 (-00:0) 6.6 6.67 (14:10) 3.89 (14:10) 0 0 0 0 0
13-02-2021 12.8 (17:00) 0 (00:00) 6.4 5.56 (15:30) 3.06 (15:30) 0 0 0 0 0
12-02-2021 14.2 (16:10) 4.2 (00:00) 9.2 14.44 (03:00) 8.06 (03:00) 5.8 4.4 1.4 0 0
11-02-2021 13.6 (16:00) 5.5 (00:00) 9.6 9.44 (23:40) 5.83 (23:59) 0 0 0 0 0
10-02-2021 10.2 (16:50) 2 (00:00) 6.1 14.44 (03:30) 8.33 (03:30) 2.4 2.4 0 0 0
09-02-2021 7.3 (11:10) 3.9 (00:00) 5.6 15.28 (12:40) 9.72 (12:50) 8.2 2 1.4 4.2 0.6
08-02-2021 7.6 (14:20) 4.4 (00:00) 6 12.78 (12:00) 7.22 (12:00) 4 3 0 1 0
07-02-2021 5.9 (14:50) -1.6 (-00:0) 2.2 9.72 (19:50) 5.56 (15:40) 0.6 0 0 0 0.6
06-02-2021 8.7 (00:20) 2.6 (00:00) 5.6 8.89 (13:00) 4.72 (16:30) 9.6 5.4 1.8 2.4 0
05-02-2021 12.9 (15:20) 4.8 (00:00) 8.8 10.28 (21:30) 6.39 (19:50) 2.2 0.4 1.4 0 0.4
04-02-2021 9.2 (12:20) 4.5 (00:00) 6.8 6.94 (15:40) 4.17 (15:20) 5 0.4 0.2 4 0.4
03-02-2021 11.7 (16:10) 8.2 (00:00) 9.9 14.72 (11:30) 7.78 (06:30) 0.8 0 0.4 0 0.4

Gráficas

Temp. máximas Temp. mínimas Temp. medias Precipitaciones Rachas de viento máximas Velocidades máximas media en intervalos de 10 minutos

Datos horarios

Fecha y hora oficial Temperatura (ºC) Velocidad del viento (km/h) Dirección del viento Racha (km/h) Dirección de racha Precipitación (mm) Presión (hPa) Tendencia (hPa) Humedad (%)
2021-03-04 23:00:00 6.6 7 Nordeste 21 Este 0 -- -- 85
2021-03-04 22:00:00 8.2 13 Este 19 Este 0 -- -- 78
2021-03-04 21:00:00 8.7 10 Nordeste 16 Nordeste 0 -- -- 76
2021-03-04 20:00:00 9.3 7 Nordeste 14 Nordeste 0 -- -- 79
2021-03-04 19:00:00 12.3 6 Este 13 Este 0 -- -- 62
2021-03-04 18:00:00 15.4 4 Nordeste 13 Nordeste 0 -- -- 51
2021-03-04 17:00:00 16.6 5 Nordeste 13 Nordeste 0 -- -- 45
2021-03-04 16:00:00 16.8 8 Nordeste 15 Este 0 -- -- 47
2021-03-04 15:00:00 16.9 6 Este 15 Este 0 -- -- 46
2021-03-04 14:00:00 15.7 5 Este 13 Nordeste 0 -- -- 57
2021-03-04 13:00:00 13.5 5 Nordeste 12 Nordeste 0 -- -- 71
2021-03-04 12:00:00 11.6 3 Nordeste 13 Nordeste 0 -- -- 79
2021-03-04 11:00:00 8.6 7 Nordeste 19 Nordeste 0 -- -- 95
2021-03-04 10:00:00 5.4 10 Nordeste 18 Este 0 -- -- 97
2021-03-04 09:00:00 3.8 9 Nordeste 17 Este 0 -- -- 96
2021-03-04 08:00:00 2.6 8 Este 13 Este 0 -- -- 96
2021-03-04 07:00:00 1.4 5 Nordeste 13 Este 0 -- -- 94
2021-03-04 06:00:00 1.9 9 Nordeste 15 Nordeste 0 -- -- 95
2021-03-04 05:00:00 1.4 3 Este 5 Sudoeste 0 -- -- 91
2021-03-04 04:00:00 3 3 Sudoeste 6 Sur 0 -- -- 90
2021-03-04 03:00:00 4.4 0 Calma 8 Nordeste 0 -- -- 90
2021-03-04 02:00:00 4.8 4 Este 8 Este 0 -- -- 89
2021-03-04 01:00:00 4.9 5 Este 9 Nordeste 0 -- -- 86
2021-03-04 00:00:00 5.4 2 Este 9 Sudeste 0 -- -- 84
2021-03-03 23:00:00 5.5 5 Este 8 Este 0 -- -- 87
2021-03-03 22:00:00 6.4 0 Calma 7 Este 0 -- -- 82
2021-03-03 21:00:00 7.1 5 Este 8 Este 0 -- -- 81
2021-03-03 20:00:00 9.5 3 Este 5 Este 0 -- -- 73
2021-03-03 19:00:00 13.6 2 Noroeste 9 Noroeste 0 -- -- 60
2021-03-03 18:00:00 15.8 6 Noroeste 10 Oeste 0 -- -- 50
2021-03-03 17:00:00 16.3 3 Oeste 12 Sudoeste 0 -- -- 48
2021-03-03 16:00:00 15.5 4 Noroeste 9 Sudeste 0 -- -- 51
2021-03-03 15:00:00 15.1 4 Oeste 10 Nordeste 0 -- -- 55
2021-03-03 14:00:00 14.3 3 Sur 15 Sudeste 0 -- -- 62
2021-03-03 13:00:00 12.8 8 Sudeste 15 Sudeste 0 -- -- 68
2021-03-03 12:00:00 11.2 8 Sudeste 18 Sudeste 0 -- -- 71
2021-03-03 11:00:00 10.7 7 Sudeste 13 Este 0 -- -- 73
2021-03-03 10:00:00 8.7 3 Sudeste 8 Sudoeste 0 -- -- 78
2021-03-03 09:00:00 6.1 7 Sudeste 16 Sudeste 0 -- -- 87
2021-03-03 08:00:00 4.9 2 Oeste 14 Sudeste 0 -- -- 87
2021-03-03 07:00:00 5.5 3 Sur 14 Sur 0 -- -- 87
2021-03-03 06:00:00 5.6 2 Sur 10 Sudeste 0 -- -- 86
2021-03-03 05:00:00 6.8 2 Sudoeste 16 Sudeste 0 -- -- 85
2021-03-03 04:00:00 7.3 8 Sudeste 19 Sudeste 0 -- -- 83
2021-03-03 03:00:00 7.8 8 Sudeste 20 Sudeste 0 -- -- 82
2021-03-03 02:00:00 7.9 12 Sudeste 26 Sudeste 0 -- -- 82
2021-03-03 01:00:00 8.3 15 Sudeste 27 Sudeste 0 -- -- 79
2021-03-03 00:00:00 8.7 3 Sudoeste 24 Sudeste 0 -- -- 77
2021-03-02 23:00:00 8.9 6 Este 20 Sudeste 0 -- -- 76
2021-03-02 22:00:00 9.9 5 Sudeste 15 Este 0 -- -- 80
2021-03-02 21:00:00 9.4 3 Este 5 Sur 0 -- -- 83
2021-03-02 20:00:00 10.5 4 Sudeste 6 Sudeste 0 -- -- 77
2021-03-02 19:00:00 11.8 3 Oeste 10 Noroeste 0 -- -- 73
2021-03-02 18:00:00 13.2 5 Noroeste 13 Oeste 0 -- -- 66
2021-03-02 17:00:00 13.6 10 Oeste 20 Oeste 0 -- -- 66
2021-03-02 16:00:00 14.4 9 Oeste 22 Sudoeste 0 -- -- 59
2021-03-02 15:00:00 15 13 Sudoeste 23 Sudoeste 0 -- -- 56
2021-03-02 14:00:00 14.1 10 Sudoeste 24 Oeste 0 -- -- 62
2021-03-02 13:00:00 12.5 10 Sur 21 Sur 0 -- -- 66
2021-03-02 12:00:00 10.9 12 Sur 24 Sur 0 -- -- 70
2021-03-02 11:00:00 9.6 9 Sur 21 Sur 0 -- -- 76
2021-03-02 10:00:00 7.4 10 Sur 24 Sur 0 -- -- 82
2021-03-02 09:00:00 6.6 7 Sur 23 Sudeste 0 -- -- 85
2021-03-02 08:00:00 6.1 0 Calma 15 Sur 0 -- -- 85
2021-03-02 07:00:00 7.1 11 Sur 25 Sudeste 0 -- -- 83
2021-03-02 06:00:00 7.2 15 Sur 32 Sur 0 -- -- 83
2021-03-02 05:00:00 7.1 14 Sur 25 Sudeste 0 -- -- 85
2021-03-02 04:00:00 7.6 11 Sur 23 Sudeste 0 -- -- 84
2021-03-02 03:00:00 8 12 Sur 23 Sur 0 -- -- 83
2021-03-02 02:00:00 8.1 11 Sur 28 Sur 0 -- -- 84
2021-03-02 01:00:00 8.1 17 Sur 28 Sur 0 -- -- 83
2021-03-02 00:00:00 8.3 17 Sudeste 28 Sudeste 0 -- -- 82
2021-03-01 23:00:00 8.1 13 Sudeste 24 Sudeste 0 -- -- 82
2021-03-01 22:00:00 8.4 15 Sudeste 26 Sudeste 0 -- -- 79
2021-03-01 21:00:00 8.6 9 Sudeste 29 Sudeste 0 -- -- 79
2021-03-01 20:00:00 8.9 20 Sudeste 38 Sudeste 0 -- -- 76
2021-03-01 19:00:00 9.6 17 Sudeste 36 Sur 0 -- -- 74
2021-03-01 18:00:00 11 19 Sudeste 36 Sudeste 0 -- -- 67
2021-03-01 17:00:00 12.1 20 Sudeste 38 Sudeste 0 -- -- 64
2021-03-01 16:00:00 12.3 22 Sudeste 37 Sudeste 0 -- -- 61
2021-03-01 15:00:00 12.3 23 Sudeste 41 Sudeste 0 -- -- 61
2021-03-01 14:00:00 12.3 23 Sudeste 42 Sudeste 0 -- -- 62
2021-03-01 13:00:00 11.8 20 Sudeste 38 Sudeste 0 -- -- 63
2021-03-01 12:00:00 10.6 18 Sudeste 36 Sudeste 0 -- -- 67
2021-03-01 11:00:00 9.4 17 Sudeste 33 Sudeste 0 -- -- 71
2021-03-01 10:00:00 7.7 10 Sudeste 22 Sudeste 0 -- -- 77
2021-03-01 09:00:00 5.2 5 Sudeste 16 Sudeste 0 -- -- 82
2021-03-01 08:00:00 4.8 5 Sudeste 29 Sudeste 0 -- -- 83
2021-03-01 07:00:00 5 14 Sudeste 27 Sudeste 0 -- -- 82
2021-03-01 06:00:00 5.4 12 Sudeste 24 Sudeste 0 -- -- 82
2021-03-01 05:00:00 5.5 6 Sur 22 Sur 0 -- -- 83
2021-03-01 04:00:00 6.2 10 Sudeste 26 Sudeste 0.2 -- -- 83
2021-03-01 03:00:00 6.7 11 Sudeste 19 Este 1.6 -- -- 86
2021-03-01 02:00:00 7.1 7 Sur 40 Sur 1.4 -- -- 85
2021-03-01 01:00:00 7.3 17 Sur 45 Sudeste 2.8 -- -- 87
2021-03-01 00:00:00 8 15 Sur 28 Sur 0.4 -- -- 81
2021-02-28 23:00:00 7.7 11 Sur 21 Sur 0 -- -- 81
2021-02-28 22:00:00 4.9 0 Calma 8 Sudoeste 0 -- -- 88
2021-02-28 21:00:00 6 0 Calma 13 Nordeste 0 -- -- 83
2021-02-28 20:00:00 6.5 8 Nordeste 22 Nordeste 0 -- -- 83
2021-02-28 19:00:00 7.4 12 Nordeste 26 Nordeste 0 -- -- 79
2021-02-28 18:00:00 8.5 13 Nordeste 27 Nordeste 0 -- -- 74
2021-02-28 17:00:00 10.1 13 Nordeste 28 Nordeste 0 -- -- 68
2021-02-28 16:00:00 10.6 15 Nordeste 28 Norte 0 -- -- 63
2021-02-28 15:00:00 9.9 14 Nordeste 32 Este 0 -- -- 68
2021-02-28 14:00:00 10.2 18 Nordeste 31 Este 0 -- -- 64
2021-02-28 13:00:00 9.8 15 Nordeste 28 Nordeste 0 -- -- 65
2021-02-28 12:00:00 8.5 17 Este 28 Este 0 -- -- 68
2021-02-28 11:00:00 6.7 15 Nordeste 27 Nordeste 0 -- -- 75
2021-02-28 10:00:00 4 11 Nordeste 21 Nordeste 0 -- -- 84
2021-02-28 09:00:00 0.4 6 Nordeste 13 Este 0 -- -- 92
2021-02-28 08:00:00 -0.2 7 Este 20 Nordeste 0 -- -- 91
2021-02-28 07:00:00 1.1 11 Nordeste 20 Este 0 -- -- 92
2021-02-28 06:00:00 -0.3 2 Sudeste 13 Nordeste 0 -- -- 91
2021-02-28 05:00:00 0.8 9 Nordeste 19 Este 0 -- -- 89
2021-02-28 04:00:00 1.2 11 Nordeste 27 Nordeste 0 -- -- 87
2021-02-28 03:00:00 1.8 16 Nordeste 27 Nordeste 0 -- -- 87
2021-02-28 02:00:00 2.1 12 Nordeste 28 Nordeste 0 -- -- 86
2021-02-28 01:00:00 2.2 20 Nordeste 33 Nordeste 0 -- -- 86
2021-02-28 00:00:00 1.7 9 Nordeste 27 Este 0 -- -- 85
2021-02-27 23:00:00 2.3 13 Este 23 Nordeste 0 -- -- 86
2021-02-27 22:00:00 3.9 13 Nordeste 26 Este 0 -- -- 82
2021-02-27 21:00:00 4.6 7 Nordeste 25 Nordeste 0 -- -- 79
2021-02-27 20:00:00 6.2 12 Nordeste 23 Nordeste 0 -- -- 73
2021-02-27 19:00:00 9.1 16 Nordeste 31 Nordeste 0 -- -- 48
2021-02-27 18:00:00 11.8 18 Nordeste 34 Nordeste 0 -- -- 51
2021-02-27 17:00:00 13.5 17 Nordeste 34 Nordeste 0 -- -- 50
2021-02-27 16:00:00 14.2 21 Nordeste 33 Nordeste 0 -- -- 52
2021-02-27 15:00:00 13.3 19 Nordeste 36 Este 0 -- -- 55
2021-02-27 14:00:00 11.9 18 Nordeste 33 Nordeste 0 -- -- 66
2021-02-27 13:00:00 11 20 Nordeste 35 Este 0 -- -- 70
2021-02-27 12:00:00 9.4 22 Nordeste 41 Este 0 -- -- 74
2021-02-27 11:00:00 9.4 20 Nordeste 37 Nordeste 0 -- -- 74
2021-02-27 10:00:00 7.7 19 Nordeste 38 Este 0 -- -- 81
2021-02-27 09:00:00 5.9 14 Nordeste 30 Este 0 -- -- 86
2021-02-27 08:00:00 5.8 17 Nordeste 36 Este 0 -- -- 87
2021-02-27 07:00:00 5.6 12 Nordeste 23 Nordeste 0 -- -- 91
2021-02-27 06:00:00 4.7 12 Nordeste 23 Este 0 -- -- 93
2021-02-27 05:00:00 4.2 9 Nordeste 14 Nordeste 0 -- -- 94
2021-02-27 04:00:00 4.3 6 Nordeste 21 Este 0 -- -- 92
2021-02-27 03:00:00 4.9 12 Este 20 Este 0 -- -- 93
2021-02-27 02:00:00 4.9 15 Este 22 Este 0 -- -- 93
2021-02-27 01:00:00 4.6 10 Este 17 Este 0 -- -- 93
2021-02-27 00:00:00 4.9 3 Nordeste 9 Nordeste 0 -- -- 91
2021-02-26 23:00:00 5.7 3 Nordeste 12 Este 0 -- -- 90
2021-02-26 22:00:00 6.4 2 Norte 16 Nordeste 0 -- -- 88
2021-02-26 21:00:00 6.9 10 Nordeste 24 Este 0 -- -- 86
2021-02-26 20:00:00 7.8 14 Este 32 Este 0 -- -- 83
2021-02-26 19:00:00 9.3 15 Este 28 Nordeste 0 -- -- 79
2021-02-26 18:00:00 10.9 15 Nordeste 32 Este 0 -- -- 72
2021-02-26 17:00:00 12.4 19 Este 30 Este 0 -- -- 67
2021-02-26 16:00:00 13.5 21 Nordeste 34 Nordeste 0 -- -- 62
2021-02-26 15:00:00 13.7 18 Nordeste 32 Nordeste 0 -- -- 62
2021-02-26 14:00:00 13 15 Nordeste 30 Nordeste 0 -- -- 67
2021-02-26 13:00:00 12.3 17 Nordeste 33 Nordeste 0 -- -- 70
2021-02-26 12:00:00 10.5 18 Nordeste 33 Nordeste 0 -- -- 75
2021-02-26 11:00:00 9.2 19 Nordeste 32 Este 0 -- -- 80
2021-02-26 10:00:00 7.9 14 Nordeste 27 Nordeste 0 -- -- 85
2021-02-26 09:00:00 6.5 14 Nordeste 27 Este 0 -- -- 90
2021-02-26 08:00:00 5.9 12 Nordeste 24 Nordeste 0 -- -- 90
2021-02-26 07:00:00 6 15 Nordeste 24 Este 0 -- -- 91
2021-02-26 06:00:00 5.6 14 Nordeste 22 Este 0 -- -- 92
2021-02-26 05:00:00 5.4 11 Nordeste 21 Este 0 -- -- 92
2021-02-26 04:00:00 6.1 10 Nordeste 30 Nordeste 0 -- -- 90
2021-02-26 03:00:00 6.2 13 Nordeste 22 Este 0 -- -- 91
2021-02-26 02:00:00 6 12 Este 23 Nordeste 0 -- -- 90
2021-02-26 01:00:00 6.1 10 Nordeste 16 Nordeste 0 -- -- 91
2021-02-26 00:00:00 6.4 11 Nordeste 19 Nordeste 0 -- -- 91
2021-02-25 23:00:00 6.4 12 Nordeste 20 Nordeste 0 -- -- 90
2021-02-25 22:00:00 6.4 7 Nordeste 23 Este 0 -- -- 87
2021-02-25 21:00:00 7.1 11 Nordeste 32 Este 0 -- -- 86
2021-02-25 20:00:00 7.2 13 Nordeste 24 Este 0 -- -- 88
2021-02-25 19:00:00 8.1 13 Nordeste 31 Este 0 -- -- 84
2021-02-25 18:00:00 10.1 14 Este 26 Este 0 -- -- 77
2021-02-25 17:00:00 12.5 14 Nordeste 24 Nordeste 0 -- -- 68
2021-02-25 16:00:00 14.1 3 Sudeste 15 Sudeste 0 -- -- 54
2021-02-25 15:00:00 14.1 7 Sudeste 17 Sudeste 0 -- -- 53
2021-02-25 14:00:00 12.9 9 Este 17 Este 0 -- -- 59
2021-02-25 13:00:00 12.1 7 Sur 15 Sudeste 0 -- -- 66
2021-02-25 12:00:00 9.6 6 Este 16 Nordeste 0 -- -- 73
2021-02-25 11:00:00 7.9 8 Nordeste 13 Nordeste 0 -- -- 81
2021-02-25 10:00:00 7.4 0 Calma 6 Este 0 -- -- 80
2021-02-25 09:00:00 5.5 4 Este 11 Este 0 -- -- 83
2021-02-25 08:00:00 5.5 3 Este 14 Este 0 -- -- 82
2021-02-25 07:00:00 5.7 5 Este 11 Este 0 -- -- 82
2021-02-25 06:00:00 6.2 3 Este 15 Sudeste 0 -- -- 80
2021-02-25 05:00:00 5.3 3 Noroeste 8 Oeste 0 -- -- 84
2021-02-25 04:00:00 5.6 3 Este 7 Nordeste 0 -- -- 86
2021-02-25 03:00:00 5.6 0 Calma 10 Sudoeste 0 -- -- 85
2021-02-25 02:00:00 7 2 Oeste 9 Sudoeste 0 -- -- 80
2021-02-25 01:00:00 8.2 6 Sur 15 Sur 0 -- -- 77
2021-02-25 00:00:00 8.7 6 Sudoeste 17 Sur 0 -- -- 75
2021-02-24 23:00:00 9.2 10 Sur 19 Sur 0 -- -- 72
2021-02-24 22:00:00 9.5 13 Sur 24 Sur 0 -- -- 69
2021-02-24 21:00:00 9.1 9 Sur 15 Sur 0 -- -- 68
2021-02-24 20:00:00 10.8 7 Sudeste 24 Sur 0 -- -- 61
2021-02-24 19:00:00 13.3 11 Sudoeste 29 Sudoeste 0 -- -- 51
2021-02-24 18:00:00 15.3 16 Sudoeste 38 Sudoeste 0 -- -- 47
2021-02-24 17:00:00 16.4 21 Sudoeste 42 Sudoeste 0 -- -- 45
2021-02-24 16:00:00 16.3 18 Sur 33 Sudoeste 0 -- -- 47
2021-02-24 15:00:00 15.7 15 Sur 32 Sudoeste 0 -- -- 48
2021-02-24 14:00:00 14.7 13 Sudoeste 23 Sudoeste 0 -- -- 56
2021-02-24 13:00:00 13 10 Sur 19 Sur 0 -- -- 63
2021-02-24 12:00:00 11.5 6 Sur 14 Sudeste 0 -- -- 65
2021-02-24 11:00:00 9 10 Sudeste 18 Sudeste 0 -- -- 73
2021-02-24 10:00:00 5.6 2 Este 8 Sudeste 0 -- -- 87
2021-02-24 09:00:00 0.9 0 Calma 10 Sudeste 0 -- -- 92
2021-02-24 08:00:00 1.2 3 Oeste 6 Oeste 0 -- -- 90
2021-02-24 07:00:00 1.6 0 Calma 4 Sudoeste 0 -- -- 90
2021-02-24 06:00:00 2.1 2 Este 12 Sudeste 0 -- -- 88
2021-02-24 05:00:00 1.2 0 Calma 7 Sur 0 -- -- 91
2021-02-24 04:00:00 2.3 2 Sudoeste 6 Sudoeste 0 -- -- 88
2021-02-24 03:00:00 3.3 5 Sudoeste 9 Oeste 0 -- -- 86
2021-02-24 02:00:00 3.2 0 Calma 5 Noroeste 0 -- -- 87
2021-02-24 01:00:00 3.4 0 Calma 6 Sur 0 -- -- 85
2021-02-24 00:00:00 3.9 0 Calma 6 Oeste 0 -- -- 87
2021-02-23 23:00:00 4.4 0 Calma 9 Sudoeste 0 -- -- 83
2021-02-23 22:00:00 6.4 5 Sudoeste 10 Sudoeste 0 -- -- 77
2021-02-23 21:00:00 6 3 Sur 14 Sur 0 -- -- 78
2021-02-23 20:00:00 7.9 2 Sur 9 Sur 0 -- -- 71
2021-02-23 19:00:00 11.7 4 Sur 12 Sudoeste 0 -- -- 58
2021-02-23 18:00:00 13.8 8 Sudoeste 21 Sudoeste 0 -- -- 50
2021-02-23 17:00:00 13.9 12 Sudoeste 22 Sudoeste 0 -- -- 46
2021-02-23 16:00:00 13.6 11 Sudoeste 23 Sudoeste 0 -- -- 46
2021-02-23 15:00:00 12.7 14 Sudoeste 22 Sudoeste 0 -- -- 48
2021-02-23 14:00:00 11.9 12 Sudoeste 21 Sudoeste 0 -- -- 51
2021-02-23 13:00:00 10.9 10 Sudoeste 22 Sur 0 -- -- 62
2021-02-23 12:00:00 8.9 12 Sur 24 Sudoeste 0 -- -- 72
2021-02-23 11:00:00 6.8 8 Sur 15 Sudeste 0 -- -- 80
2021-02-23 10:00:00 3 4 Sudoeste 6 Oeste 0 -- -- 91
2021-02-23 09:00:00 0.1 0 Calma 3 Oeste 0 -- -- 94
2021-02-23 08:00:00 0.2 2 Sudoeste 4 Oeste 0 -- -- 92
2021-02-23 07:00:00 1.2 2 Oeste 9 Sudeste 0 -- -- 93
2021-02-23 06:00:00 0.6 3 Sudeste 8 Sur 0 -- -- 96
2021-02-23 05:00:00 -0.9 0 Calma 6 Este 0 -- -- 94
2021-02-23 04:00:00 -0.4 2 Sur 4 Sudoeste 0 -- -- 94
2021-02-23 03:00:00 -0.3 2 Este 4 Este 0 -- -- 94
2021-02-23 02:00:00 0.3 2 Este 3 Sudeste 0 -- -- 93
2021-02-23 01:00:00 1.1 0 Calma 2 Noroeste 0 -- -- 91
2021-02-23 00:00:00 2.6 0 Calma 6 Nordeste 0 -- -- 88
2021-02-22 23:00:00 3.9 4 Nordeste 10 Sudeste 0 -- -- 85
2021-02-22 22:00:00 4.3 2 Noroeste 13 Sudeste 0 -- -- 86
2021-02-22 21:00:00 4.6 6 Sudeste 13 Sudeste 0 -- -- 83
2021-02-22 20:00:00 5.9 3 Oeste 11 Sudeste 0 -- -- 78
2021-02-22 19:00:00 8.4 5 Sudeste 9 Sudeste 0 -- -- 71
2021-02-22 18:00:00 10.2 4 Sudoeste 8 Sudoeste 0 -- -- 59
2021-02-22 17:00:00 9.4 6 Sudoeste 10 Sudoeste 0 -- -- 65
2021-02-22 16:00:00 9.9 2 Sur 10 Sudoeste 0 -- -- 58
2021-02-22 15:00:00 10.3 4 Sudeste 13 Sudoeste 0 -- -- 59
2021-02-22 14:00:00 9.1 4 Nordeste 9 Nordeste 0.2 -- -- 63
2021-02-22 13:00:00 8.4 3 Sudoeste 11 Oeste 0 -- -- 70
2021-02-22 12:00:00 6.9 5 Sudoeste 12 Oeste 0 -- -- 80
2021-02-22 11:00:00 4.7 3 Sur 7 Sudoeste 0 -- -- 88
2021-02-22 10:00:00 3.6 3 Sudoeste 9 Sudoeste 0 -- -- 95
2021-02-22 09:00:00 2.5 0 Calma 6 Este 0 -- -- 94
2021-02-22 08:00:00 2.6 0 Calma 3 Nordeste 0 -- -- 93
2021-02-22 07:00:00 2.9 0 Calma 4 Sudoeste 0.4 -- -- 92
2021-02-22 06:00:00 2.8 3 Oeste 6 Oeste 1 -- -- 93
2021-02-22 05:00:00 2.6 0 Calma 14 Noroeste 1.2 -- -- 92
2021-02-22 04:00:00 2.9 8 Noroeste 15 Noroeste 1.6 -- -- 93
2021-02-22 03:00:00 3 8 Nordeste 24 Nordeste 1.2 -- -- 92
2021-02-22 02:00:00 3.2 9 Nordeste 21 Norte 0.6 -- -- 92
2021-02-22 01:00:00 3.5 13 Nordeste 25 Nordeste 0.8 -- -- 92
2021-02-22 00:00:00 4.8 14 Norte 24 Norte 1.2 -- -- 92
2021-02-21 23:00:00 5.6 5 Oeste 14 Oeste 1 -- -- 93
2021-02-21 22:00:00 5.9 6 Oeste 19 Oeste 0.6 -- -- 92
2021-02-21 21:00:00 6.2 6 Oeste 18 Oeste 0.6 -- -- 91
2021-02-21 20:00:00 7.4 9 Oeste 17 Oeste 0.8 -- -- 89
2021-02-21 19:00:00 8.2 2 Sudoeste 11 Sudeste 0.6 -- -- 86
2021-02-21 18:00:00 8.8 8 Sur 15 Sudeste 0.8 -- -- 80
2021-02-21 17:00:00 9.6 7 Sudeste 15 Este 1 -- -- 79
2021-02-21 16:00:00 10.2 12 Sudeste 23 Este 0 -- -- 69
2021-02-21 15:00:00 10.4 14 Sudeste 28 Este 0 -- -- 66
2021-02-21 14:00:00 10.5 19 Sudeste 31 Sudeste 0 -- -- 61
2021-02-21 13:00:00 9.9 13 Sudeste 33 Sudeste 0 -- -- 61
2021-02-21 12:00:00 9.9 15 Sudeste 35 Sudeste 0 -- -- 62
2021-02-21 11:00:00 9.7 21 Sudeste 35 Sudeste 0 -- -- 60
2021-02-21 10:00:00 9.2 17 Sur 32 Sur 0 -- -- 62
2021-02-21 09:00:00 8.9 17 Sudeste 31 Sudeste 0 -- -- 64
2021-02-21 08:00:00 9.3 17 Sudeste 39 Sudeste 0 -- -- 61
2021-02-21 07:00:00 9.7 22 Sudeste 41 Sudeste 0 -- -- 62
2021-02-21 06:00:00 10 15 Sudeste 32 Sudeste 0 -- -- 61
2021-02-21 05:00:00 9.8 17 Sudeste 37 Sur 0 -- -- 63
2021-02-21 04:00:00 10.4 22 Sudeste 42 Sudeste 0 -- -- 58
2021-02-21 03:00:00 10.6 17 Sudeste 28 Sudeste 0 -- -- 51
2021-02-21 02:00:00 11.3 14 Sudeste 28 Sudeste 0 -- -- 43
2021-02-21 01:00:00 11.6 13 Sur 32 Sur 0 -- -- 39
2021-02-21 00:00:00 11.7 14 Sur 35 Sudeste 0 -- -- 40
2021-02-20 23:00:00 12.1 17 Sudeste 37 Sudeste 0 -- -- 39
2021-02-20 22:00:00 11.7 13 Sudeste 27 Sur 0 -- -- 42
2021-02-20 21:00:00 12.5 14 Sur 30 Sudoeste 0 -- -- 40
2021-02-20 20:00:00 12.2 8 Sur 22 Sur 0 -- -- 43
2021-02-20 19:00:00 13.1 13 Sur 32 Sur 0 -- -- 40
2021-02-20 18:00:00 13.3 22 Sur 39 Sur 0 -- -- 39
2021-02-20 17:00:00 13.1 21 Sur 45 Sur 0 -- -- 41
2021-02-20 16:00:00 13.2 22 Sur 41 Sur 0 -- -- 43
2021-02-20 15:00:00 13.2 18 Sur 39 Sur 0 -- -- 42
2021-02-20 14:00:00 13.4 23 Sur 51 Sur 0 -- -- 41
2021-02-20 13:00:00 13.9 26 Sudoeste 50 Sur 0 -- -- 44
2021-02-20 12:00:00 12.2 18 Sudoeste 40 Sudoeste 0 -- -- 50
2021-02-20 11:00:00 12 23 Sur 48 Sur 0 -- -- 51
2021-02-20 10:00:00 11.4 20 Sur 34 Sur 0 -- -- 54
2021-02-20 09:00:00 8 8 Sudoeste 26 Sudoeste 0 -- -- 67
2021-02-20 08:00:00 8.3 14 Sudoeste 29 Sur 0 -- -- 63
2021-02-20 07:00:00 6.6 12 Sur 24 Sudoeste 0 -- -- 66
2021-02-20 06:00:00 4.9 6 Sudoeste 14 Oeste 0 -- -- 78
2021-02-20 05:00:00 4.7 5 Oeste 8 Oeste 0 -- -- 79
2021-02-20 04:00:00 4.6 3 Sudoeste 6 Oeste 0 -- -- 80
2021-02-20 03:00:00 4.7 3 Sudoeste 9 Sudoeste 0 -- -- 79
2021-02-20 02:00:00 6.1 5 Sudoeste 23 Sur 0 -- -- 73
2021-02-20 01:00:00 8 11 Sudoeste 26 Sudoeste 0 -- -- 65
2021-02-20 00:00:00 8.4 16 Sudoeste 23 Sudoeste 0 -- -- 65
2021-02-19 23:00:00 7.4 4 Sudoeste 17 Sur 0 -- -- 69
2021-02-19 22:00:00 9 9 Sur 20 Sur 0 -- -- 60
2021-02-19 21:00:00 9.4 6 Sudoeste 36 Sur 0 -- -- 57
2021-02-19 20:00:00 11.8 15 Sudoeste 30 Sur 0 -- -- 44
2021-02-19 19:00:00 11.7 10 Sudoeste 19 Sudoeste 0 -- -- 50
2021-02-19 18:00:00 13.4 12 Sudoeste 29 Oeste 0 -- -- 52
2021-02-19 17:00:00 14.4 15 Oeste 37 Oeste 0 -- -- 48
2021-02-19 16:00:00 15.8 21 Sudoeste 49 Sudoeste 0 -- -- 42
2021-02-19 15:00:00 15.4 17 Sudoeste 31 Sudoeste 0 -- -- 46
2021-02-19 14:00:00 14.5 17 Sudoeste 39 Sudoeste 0 -- -- 48
2021-02-19 13:00:00 13.3 24 Sudoeste 37 Sudoeste 0 -- -- 51
2021-02-19 12:00:00 11.4 15 Sudoeste 34 Sudoeste 0 -- -- 64
2021-02-19 11:00:00 10.6 22 Sudoeste 39 Sudoeste 0 -- -- 69
2021-02-19 10:00:00 8.6 17 Sudoeste 30 Sudoeste 0 -- -- 74
2021-02-19 09:00:00 7.7 18 Sudoeste 28 Sudoeste 0 -- -- 77
2021-02-19 08:00:00 6.9 9 Sudoeste 20 Sudoeste 0 -- -- 82
2021-02-19 07:00:00 6.6 11 Sudoeste 20 Sur 0 -- -- 84
2021-02-19 06:00:00 7 9 Sudoeste 18 Sur 0 -- -- 83
2021-02-19 05:00:00 7.3 7 Sur 14 Sudoeste 0 -- -- 86
2021-02-19 04:00:00 7.9 8 Sudoeste 18 Sudoeste 0 -- -- 89
2021-02-19 03:00:00 8.2 8 Sudoeste 15 Sudoeste 0.2 -- -- 92
2021-02-19 02:00:00 8.4 6 Sudoeste 15 Sudoeste 0 -- -- 93
2021-02-19 01:00:00 8.6 9 Sudoeste 15 Sudoeste 0 -- -- 92
2021-02-19 00:00:00 8.5 8 Sudoeste 32 Sudoeste 0.4 -- -- 92
2021-02-18 23:00:00 9 16 Sudoeste 30 Sudoeste 0 -- -- 88
2021-02-18 22:00:00 9 14 Sudoeste 27 Sudoeste 0.2 -- -- 87
2021-02-18 21:00:00 8.9 13 Sudoeste 21 Sudoeste 0 -- -- 87
2021-02-18 20:00:00 8.7 11 Sudoeste 18 Sudoeste 0.4 -- -- 88
2021-02-18 19:00:00 9.2 12 Oeste 28 Oeste 0 -- -- 81
2021-02-18 18:00:00 11.4 12 Sudoeste 40 Oeste 0 -- -- 74
2021-02-18 17:00:00 12.2 18 Sudoeste 42 Sudoeste 0 -- -- 69
2021-02-18 16:00:00 12.3 26 Sudoeste 44 Sudoeste 0 -- -- 65
2021-02-18 15:00:00 12.3 26 Sudoeste 45 Sudoeste 0 -- -- 67
2021-02-18 14:00:00 11.4 22 Sudoeste 51 Sudoeste 0 -- -- 67
2021-02-18 13:00:00 11.3 26 Sudoeste 45 Oeste 0 -- -- 67
2021-02-18 12:00:00 10.8 26 Sudoeste 46 Sudoeste 0 -- -- 67
2021-02-18 11:00:00 10.2 21 Sudoeste 33 Sudoeste 0 -- -- 70
2021-02-18 10:00:00 7.4 9 Sudoeste 16 Sudoeste 0 -- -- 85
2021-02-18 09:00:00 7.4 12 Sudoeste 22 Sudoeste 0 -- -- 84
2021-02-18 08:00:00 7.2 9 Sudoeste 21 Sudoeste 0 -- -- 86
2021-02-18 07:00:00 7.4 11 Sudoeste 20 Sur 0 -- -- 85
2021-02-18 06:00:00 7.5 13 Sudoeste 23 Sudoeste 0 -- -- 84
2021-02-18 05:00:00 7.6 14 Sudoeste 28 Sudoeste 0 -- -- 82
2021-02-18 04:00:00 8.1 16 Sudoeste 27 Sudoeste 0 -- -- 79
2021-02-18 03:00:00 8.2 14 Sudoeste 32 Sudoeste 0 -- -- 81
2021-02-18 02:00:00 8.4 15 Sudoeste 28 Sudoeste 0 -- -- 80
2021-02-18 01:00:00 9 10 Sudoeste 33 Sudoeste 0 -- -- 77
2021-02-18 00:00:00 9.3 19 Sudoeste 32 Sudoeste 0 -- -- 76
2021-02-17 23:00:00 9.6 11 Sudoeste 31 Sur 0 -- -- 75
2021-02-17 22:00:00 8.5 7 Sudoeste 17 Sur 0 -- -- 85
2021-02-17 21:00:00 10.4 10 Sur 21 Sur 0 -- -- 80
2021-02-17 20:00:00 10.6 5 Sudoeste 17 Sudoeste 0 -- -- 79
2021-02-17 19:00:00 11.4 7 Sudoeste 16 Sur 0 -- -- 78
2021-02-17 18:00:00 12.1 9 Sudoeste 19 Sudoeste 0 -- -- 78
2021-02-17 17:00:00 11.8 11 Sudoeste 24 Sudoeste 0 -- -- 79
2021-02-17 16:00:00 11.7 15 Sudoeste 28 Sudoeste 0 -- -- 76
2021-02-17 15:00:00 11.7 17 Sudoeste 33 Sudoeste 0 -- -- 77
2021-02-17 14:00:00 11.6 17 Sudoeste 27 Sudoeste 0 -- -- 80
2021-02-17 13:00:00 10.9 12 Sudoeste 22 Sudoeste 0 -- -- 85
2021-02-17 12:00:00 9.8 15 Sudoeste 25 Sudoeste 0 -- -- 86
2021-02-17 11:00:00 9.8 8 Sudoeste 20 Sudoeste 0 -- -- 88
2021-02-17 10:00:00 8.5 6 Sur 12 Sur 0 -- -- 94
2021-02-17 09:00:00 6.8 0 Calma 5 Sudoeste 0 -- -- 96
2021-02-17 08:00:00 6.1 0 Calma 3 Sudoeste 0 -- -- 95
2021-02-17 07:00:00 6 2 Oeste 7 Sur 0 -- -- 94
2021-02-17 06:00:00 6.2 2 Oeste 12 Sudoeste 0 -- -- 91
2021-02-17 05:00:00 7.1 6 Sudoeste 15 Sudoeste 0 -- -- 89
2021-02-17 04:00:00 8.1 7 Sudoeste 21 Sudoeste 0.2 -- -- 87
2021-02-17 03:00:00 8.4 11 Sudoeste 18 Sur 0 -- -- 92
2021-02-17 02:00:00 8.3 9 Sudoeste 16 Sudoeste 0 -- -- 93
2021-02-17 01:00:00 8 3 Sudoeste 13 Sudoeste 0 -- -- 92
2021-02-17 00:00:00 7.1 3 Oeste 13 Sudoeste 0 -- -- 93
2021-02-16 23:00:00 8.1 8 Sudoeste 16 Sudoeste 0 -- -- 91
2021-02-16 22:00:00 8.4 6 Sudoeste 13 Sudoeste 0 -- -- 91
2021-02-16 21:00:00 8.7 8 Sudoeste 20 Sudoeste 0 -- -- 90
2021-02-16 20:00:00 9 11 Sudoeste 25 Sudoeste 0 -- -- 89
2021-02-16 19:00:00 9.8 15 Sudoeste 30 Sudoeste 0.8 -- -- 87
2021-02-16 18:00:00 11.3 19 Oeste 30 Oeste 0 -- -- 78
2021-02-16 17:00:00 12.2 16 Sudoeste 39 Sudoeste 0 -- -- 70
2021-02-16 16:00:00 11.8 16 Sudoeste 46 Sudoeste 0 -- -- 70
2021-02-16 15:00:00 12.2 25 Sudoeste 49 Sudoeste 0 -- -- 66
2021-02-16 14:00:00 12.8 28 Sudoeste 50 Oeste 0 -- -- 62
2021-02-16 13:00:00 13.5 28 Sudoeste 51 Sudoeste 0 -- -- 59
2021-02-16 12:00:00 12.1 21 Sudoeste 49 Sudoeste 0 -- -- 64
2021-02-16 11:00:00 10.3 19 Sudoeste 40 Sudoeste 0 -- -- 68
2021-02-16 10:00:00 8.1 13 Sudoeste 24 Sudoeste 0 -- -- 75
2021-02-16 09:00:00 5 5 Sudoeste 21 Sur 0 -- -- 83
2021-02-16 08:00:00 5.6 8 Sudoeste 25 Sur 0 -- -- 80
2021-02-16 07:00:00 6.1 10 Sur 23 Sudoeste 0 -- -- 78
2021-02-16 06:00:00 6.4 8 Sudoeste 18 Sur 0 -- -- 78
2021-02-16 05:00:00 6.2 9 Sur 21 Oeste 0 -- -- 78
2021-02-16 04:00:00 5.5 9 Oeste 16 Sudoeste 0 -- -- 82
2021-02-16 03:00:00 6.1 3 Noroeste 13 Sudoeste 0 -- -- 79
2021-02-16 02:00:00 7.2 3 Sudeste 15 Sur 0 -- -- 76
2021-02-16 01:00:00 7.5 9 Sudeste 22 Sudeste 0 -- -- 76
2021-02-16 00:00:00 8.4 8 Sudeste 24 Sudeste 0 -- -- 72
2021-02-15 23:00:00 8.7 13 Sudeste 23 Sudeste 0 -- -- 75
2021-02-15 22:00:00 9.6 10 Sudeste 23 Sudeste 0 -- -- 75
2021-02-15 21:00:00 10.8 10 Sur 19 Sur 0 -- -- 72
2021-02-15 20:00:00 11.9 9 Sur 21 Sudeste 0 -- -- 69
2021-02-15 19:00:00 12.7 8 Sudeste 14 Sudeste 0 -- -- 66
2021-02-15 18:00:00 14.5 5 Sur 12 Sur 0 -- -- 58
2021-02-15 17:00:00 15.3 5 Sur 16 Sur 0 -- -- 55
2021-02-15 16:00:00 15.7 10 Sur 19 Sudeste 0 -- -- 52
2021-02-15 15:00:00 15.8 11 Sur 18 Sur 0 -- -- 52
2021-02-15 14:00:00 15.5 5 Sur 10 Sur 0 -- -- 55
2021-02-15 13:00:00 14.3 4 Oeste 10 Oeste 0 -- -- 57
2021-02-15 12:00:00 12.6 5 Sur 12 Sudeste 0 -- -- 63
2021-02-15 11:00:00 9.2 2 Noroeste 4 Oeste 0 -- -- 77
2021-02-15 10:00:00 6.8 3 Noroeste 17 Sur 0 -- -- 81
2021-02-15 09:00:00 5.6 4 Sur 12 Sur 0 -- -- 83
2021-02-15 08:00:00 4.6 4 Sudoeste 11 Sudoeste 0 -- -- 86
2021-02-15 07:00:00 5.2 5 Sur 14 Sudeste 0 -- -- 85
2021-02-15 06:00:00 5 3 Norte 10 Sur 0 -- -- 86
2021-02-15 05:00:00 5.1 0 Calma 9 Sur 0 -- -- 87
2021-02-15 04:00:00 5.8 2 Este 9 Sudoeste 0 -- -- 85
2021-02-15 03:00:00 5.5 3 Sudoeste 8 Oeste 0 -- -- 90
2021-02-15 02:00:00 5.9 2 Noroeste 10 Sudoeste 0 -- -- 84
2021-02-15 01:00:00 7 5 Sudoeste 12 Sudoeste 0 -- -- 85
2021-02-15 00:00:00 6.2 2 Sudoeste 6 Sudoeste 0 -- -- 90
2021-02-14 23:00:00 6.6 2 Sudeste 9 Sudeste 0 -- -- 89
2021-02-14 22:00:00 6.4 6 Este 9 Este 0 -- -- 92
2021-02-14 21:00:00 6.9 4 Este 8 Este 0 -- -- 91
2021-02-14 20:00:00 8.2 3 Este 6 Este 0 -- -- 87
2021-02-14 19:00:00 10.6 3 Sudeste 8 Nordeste 0 -- -- 83
2021-02-14 18:00:00 12.3 4 Este 10 Este 0 -- -- 80
2021-02-14 17:00:00 13.5 0 Calma 8 Noroeste 0 -- -- 72
2021-02-14 16:00:00 13.7 5 Noroeste 16 Noroeste 0 -- -- 74
2021-02-14 15:00:00 12.9 12 Noroeste 24 Oeste 0 -- -- 79
2021-02-14 14:00:00 12.7 10 Sudoeste 20 Sudoeste 0 -- -- 73
2021-02-14 13:00:00 9.8 0 Calma 9 Oeste 0 -- -- 94
2021-02-14 12:00:00 6.7 3 Noroeste 5 Noroeste 0 -- -- 98
2021-02-14 11:00:00 4.1 2 Oeste 5 Oeste 0 -- -- 98
2021-02-14 10:00:00 2.4 5 Oeste 8 Oeste 0 -- -- 98
2021-02-14 09:00:00 -0.4 0 Calma 4 Este 0 -- -- 97
2021-02-14 08:00:00 -0.4 0 Calma 5 Este 0 -- -- 96
2021-02-14 07:00:00 0.2 0 Calma 3 Sudoeste 0 -- -- 97
2021-02-14 06:00:00 -0.6 0 Calma 2 Sudoeste 0 -- -- 96
2021-02-14 05:00:00 -0.4 0 Calma 5 Este 0 -- -- 96
2021-02-14 04:00:00 0.2 0 Calma 3 Este 0 -- -- 95
2021-02-14 03:00:00 1.3 2 Este 5 Este 0 -- -- 95
2021-02-14 02:00:00 2 0 Calma 4 Sudeste 0 -- -- 94
2021-02-14 01:00:00 2.6 2 Nordeste 5 Este 0 -- -- 93
2021-02-14 00:00:00 3.8 0 Calma 7 Nordeste 0 -- -- 92
2021-02-13 23:00:00 4.2 5 Este 8 Este 0 -- -- 91
2021-02-13 22:00:00 6.1 0 Calma 5 Este 0 -- -- 91
2021-02-13 21:00:00 6.1 0 Calma 5 Nordeste 0 -- -- 90
2021-02-13 20:00:00 6.6 2 Este 5 Nordeste 0 -- -- 85
2021-02-13 19:00:00 10.5 0 Calma 11 Oeste 0 -- -- 78
2021-02-13 18:00:00 11.7 8 Oeste 18 Oeste 0 -- -- 72
2021-02-13 17:00:00 12.8 7 Oeste 17 Oeste 0 -- -- 67
2021-02-13 16:00:00 11.6 8 Oeste 20 Oeste 0 -- -- 72
2021-02-13 15:00:00 11.5 9 Oeste 16 Oeste 0 -- -- 73
2021-02-13 14:00:00 9.9 9 Oeste 18 Oeste 0 -- -- 77
2021-02-13 13:00:00 7.7 8 Oeste 14 Sudoeste 0 -- -- 91
2021-02-13 08:00:00 0.1 0 Calma 4 Este 0 -- -- 97
2021-02-13 07:00:00 0.8 0 Calma 4 Oeste 0 -- -- 96
2021-02-13 06:00:00 0.8 2 Sudoeste 4 Sudoeste 0 -- -- 97
2021-02-13 05:00:00 0.8 2 Sudoeste 5 Oeste 0 -- -- 96
2021-02-13 04:00:00 1 0 Calma 4 Este 0 -- -- 95
2021-02-13 03:00:00 1.7 0 Calma 2 Sudeste 0 -- -- 95
2021-02-13 02:00:00 2.1 0 Calma 4 Este 0 -- -- 94
2021-02-13 01:00:00 3.1 0 Calma 5 Nordeste 0 -- -- 94
2021-02-13 00:00:00 4.2 0 Calma 6 Nordeste 0 -- -- 93
2021-02-12 23:00:00 4.4 3 Este 9 Nordeste 0 -- -- 93
2021-02-12 22:00:00 4.8 6 Nordeste 11 Nordeste 0 -- -- 91
2021-02-12 21:00:00 6 3 Este 8 Este 0 -- -- 89
2021-02-12 20:00:00 8.1 2 Este 6 Este 0 -- -- 84
2021-02-12 19:00:00 10.3 0 Calma 21 Oeste 0 -- -- 78
2021-02-12 18:00:00 12.9 17 Oeste 30 Oeste 0 -- -- 66
2021-02-12 17:00:00 13.9 17 Oeste 33 Noroeste 0 -- -- 64
2021-02-12 16:00:00 13.9 15 Noroeste 31 Noroeste 0 -- -- 65
2021-02-12 15:00:00 13.4 16 Oeste 36 Oeste 0 -- -- 67
2021-02-12 14:00:00 12.1 20 Oeste 37 Oeste 0 -- -- 70
2021-02-12 13:00:00 11.4 18 Oeste 36 Oeste 0 -- -- 77
2021-02-12 12:00:00 9.4 18 Oeste 32 Oeste 0 -- -- 87
2021-02-12 11:00:00 7.7 14 Oeste 33 Oeste 0.4 -- -- 90
2021-02-12 10:00:00 8.1 18 Oeste 35 Oeste 0 -- -- 90
2021-02-12 09:00:00 8 13 Oeste 24 Oeste 0 -- -- 93
2021-02-12 08:00:00 7.7 6 Sudoeste 20 Oeste 0 -- -- 91
2021-02-12 07:00:00 8.2 12 Oeste 38 Oeste 1 -- -- 91
2021-02-12 06:00:00 9.1 17 Sudoeste 29 Sudoeste 0 -- -- 93
2021-02-12 05:00:00 9 13 Sudoeste 28 Sudoeste 0.4 -- -- 93
2021-02-12 04:00:00 8.9 15 Sudoeste 41 Sudoeste 1.6 -- -- 92
2021-02-12 03:00:00 9.9 29 Sudoeste 52 Sur 2.2 -- -- 88
2021-02-12 02:00:00 10 21 Sudoeste 35 Sudoeste 0.2 -- -- 87
2021-02-12 01:00:00 10.1 16 Sudoeste 36 Sudoeste 0 -- -- 86
2021-02-12 00:00:00 10.2 21 Sudoeste 34 Sudoeste 0 -- -- 86
2021-02-11 23:00:00 10.7 17 Sudoeste 34 Sudoeste 0 -- -- 84
2021-02-11 22:00:00 11 14 Sudoeste 27 Sur 0 -- -- 87
2021-02-11 21:00:00 11.2 14 Sudoeste 25 Sudoeste 0 -- -- 86
2021-02-11 20:00:00 11 8 Sudoeste 14 Sudoeste 0 -- -- 86
2021-02-11 19:00:00 11.3 0 Calma 13 Sudoeste 0 -- -- 87
2021-02-11 18:00:00 12.7 9 Sudoeste 23 Sudoeste 0 -- -- 85
2021-02-11 17:00:00 13 7 Oeste 22 Sudoeste 0 -- -- 84
2021-02-11 16:00:00 13.6 11 Oeste 21 Oeste 0 -- -- 79
2021-02-11 15:00:00 13.1 10 Oeste 22 Sudoeste 0 -- -- 81
2021-02-11 14:00:00 12.5 12 Sudoeste 26 Sudoeste 0 -- -- 82
2021-02-11 13:00:00 10.7 11 Sudoeste 24 Sudoeste 0 -- -- 91
2021-02-11 12:00:00 10.3 15 Sudoeste 23 Sudoeste 0 -- -- 91
2021-02-11 11:00:00 9.2 13 Sudoeste 24 Sudoeste 0 -- -- 96
2021-02-11 10:00:00 8.3 9 Sudoeste 24 Sudoeste 0 -- -- 96
2021-02-11 09:00:00 7.4 8 Sudoeste 17 Sudoeste 0 -- -- 96
2021-02-11 08:00:00 6.4 5 Oeste 9 Oeste 0 -- -- 96
2021-02-11 07:00:00 6.3 5 Oeste 20 Sudoeste 0 -- -- 95
2021-02-11 06:00:00 6 10 Sudoeste 18 Sudoeste 0 -- -- 93
2021-02-11 05:00:00 5.9 6 Sudoeste 17 Sur 0 -- -- 91
2021-02-11 04:00:00 5.6 3 Sur 21 Sudoeste 0 -- -- 90
2021-02-11 03:00:00 6 12 Sudoeste 24 Sudoeste 0 -- -- 87
2021-02-11 02:00:00 6.5 10 Sudoeste 18 Sudoeste 0 -- -- 78
2021-02-11 01:00:00 6.1 8 Sudoeste 15 Oeste 0 -- -- 79
2021-02-11 00:00:00 6.6 10 Sudoeste 22 Sudoeste 0 -- -- 74
2021-02-10 23:00:00 6.5 11 Sudoeste 23 Sudoeste 0 -- -- 74
2021-02-10 22:00:00 6.2 9 Sudoeste 18 Oeste 0 -- -- 74
2021-02-10 21:00:00 7.1 10 Sudoeste 19 Sudoeste 0 -- -- 72
2021-02-10 20:00:00 7.3 8 Sudoeste 16 Sudoeste 0 -- -- 71
2021-02-10 19:00:00 7.2 7 Sudoeste 25 Sudoeste 0 -- -- 74
2021-02-10 18:00:00 9.2 15 Oeste 32 Sudoeste 0 -- -- 65
2021-02-10 17:00:00 10 19 Oeste 31 Sudoeste 0 -- -- 61
2021-02-10 16:00:00 9.9 21 Oeste 33 Sudoeste 0 -- -- 63
2021-02-10 15:00:00 8.8 17 Oeste 37 Oeste 0 -- -- 65
2021-02-10 14:00:00 7.6 21 Oeste 40 Oeste 0 -- -- 68
2021-02-10 13:00:00 8.3 19 Oeste 39 Oeste 0 -- -- 68
2021-02-10 12:00:00 7.1 20 Oeste 40 Oeste 0 -- -- 72
2021-02-10 11:00:00 5.7 18 Oeste 40 Oeste 0 -- -- 75
2021-02-10 10:00:00 4.1 18 Oeste 32 Oeste 0 -- -- 84
2021-02-10 09:00:00 2.1 8 Sudoeste 22 Sudoeste 0 -- -- 92
2021-02-10 08:00:00 2.2 8 Oeste 15 Oeste 0 -- -- 92
2021-02-10 07:00:00 2.9 9 Oeste 26 Oeste 0 -- -- 92
2021-02-10 06:00:00 3.2 16 Oeste 33 Oeste 0 -- -- 92
2021-02-10 05:00:00 3.9 19 Oeste 41 Oeste 0 -- -- 90
2021-02-10 04:00:00 4.1 23 Sudoeste 52 Oeste 1.4 -- -- 91
2021-02-10 03:00:00 4.7 13 Sudoeste 26 Sudoeste 0.4 -- -- 92
2021-02-10 02:00:00 4.8 19 Sudoeste 32 Oeste 0 -- -- 88
2021-02-10 01:00:00 4.6 16 Oeste 43 Sudoeste 0.6 -- -- 91
2021-02-10 00:00:00 4.6 23 Sudoeste 39 Sudoeste 0 -- -- 89
2021-02-09 23:00:00 4.6 23 Sudoeste 40 Sudoeste 0.2 -- -- 86
2021-02-09 22:00:00 4.2 21 Sudoeste 34 Sudoeste 0 -- -- 89
2021-02-09 21:00:00 3.9 16 Sudoeste 36 Sudoeste 0.4 -- -- 90
2021-02-09 20:00:00 4.3 15 Sudoeste 29 Sudoeste 0 -- -- 87
2021-02-09 19:00:00 4.5 18 Sudoeste 38 Sudoeste 0 -- -- 86
2021-02-09 18:00:00 5.7 10 Sudoeste 32 Sudoeste 0 -- -- 82
2021-02-09 17:00:00 5.9 17 Sudoeste 39 Sudoeste 0 -- -- 82
2021-02-09 16:00:00 6.1 21 Sudoeste 33 Sudoeste 0 -- -- 84
2021-02-09 15:00:00 4.5 9 Oeste 25 Oeste 0.4 -- -- 90
2021-02-09 14:00:00 4.2 15 Oeste 53 Oeste 1.4 -- -- 92
2021-02-09 13:00:00 5.2 26 Oeste 55 Sudoeste 2.4 -- -- 89
2021-02-09 12:00:00 7.1 24 Sudoeste 47 Sudoeste 1 -- -- 91
2021-02-09 11:00:00 7.2 29 Sudoeste 50 Sudoeste 0.4 -- -- 90
2021-02-09 10:00:00 7.1 23 Sudoeste 45 Sudoeste 0 -- -- 89
2021-02-09 09:00:00 6.7 24 Sudoeste 46 Sudoeste 0 -- -- 88
2021-02-09 08:00:00 6.3 23 Sudoeste 41 Sur 0 -- -- 88
2021-02-09 07:00:00 5.5 19 Sudoeste 40 Sur 0 -- -- 91
2021-02-09 06:00:00 4.6 17 Sudoeste 37 Sur 0.4 -- -- 91
2021-02-09 05:00:00 4.2 15 Sudoeste 36 Sudoeste 0.8 -- -- 91
2021-02-09 04:00:00 4.8 17 Sudoeste 42 Sudoeste 0.8 -- -- 89
2021-02-09 03:00:00 5.7 22 Sudoeste 37 Sudoeste 0 -- -- 86
2021-02-09 02:00:00 5.6 21 Sudoeste 38 Sudoeste 0 -- -- 86
2021-02-09 01:00:00 5.9 21 Sudoeste 42 Sudoeste 0 -- -- 87
2021-02-09 00:00:00 6.1 22 Sudoeste 38 Sudoeste 0 -- -- 89
2021-02-08 23:00:00 5.8 21 Sudoeste 36 Oeste 0 -- -- 91
2021-02-08 22:00:00 5 17 Sudoeste 26 Oeste 0 -- -- 91
2021-02-08 21:00:00 5 15 Sudoeste 31 Sudoeste 0 -- -- 89
2021-02-08 20:00:00 5.3 11 Sudoeste 23 Oeste 0 -- -- 87
2021-02-08 19:00:00 5.9 14 Sudoeste 32 Oeste 0 -- -- 85
2021-02-08 18:00:00 6.7 17 Oeste 43 Sudoeste 0 -- -- 84
2021-02-08 17:00:00 7.2 24 Oeste 45 Oeste 0 -- -- 83
2021-02-08 16:00:00 7 26 Sudoeste 44 Sudoeste 1 -- -- 85
2021-02-08 15:00:00 7.4 21 Oeste 41 Sudoeste 0 -- -- 79
2021-02-08 14:00:00 7.5 25 Oeste 44 Sudoeste 0 -- -- 78
2021-02-08 13:00:00 6.3 17 Oeste 38 Oeste 0 -- -- 84
2021-02-08 12:00:00 6 26 Oeste 46 Oeste 0 -- -- 84
2021-02-08 11:00:00 5.6 24 Oeste 41 Oeste 0 -- -- 88
2021-02-08 10:00:00 4.7 25 Oeste 41 Sudoeste 0 -- -- 90
2021-02-08 09:00:00 4.9 15 Oeste 31 Sudoeste 0 -- -- 90
2021-02-08 08:00:00 5.4 20 Sudoeste 36 Sudoeste 0 -- -- 91
2021-02-08 07:00:00 5.7 14 Oeste 38 Sudoeste 0 -- -- 90
2021-02-08 06:00:00 6 17 Oeste 34 Sudoeste 0 -- -- 88
2021-02-08 05:00:00 6.1 17 Sudoeste 35 Sudoeste 0 -- -- 90
2021-02-08 04:00:00 6.2 18 Sudoeste 35 Sudoeste 0 -- -- 92
2021-02-08 03:00:00 5.4 18 Sudoeste 29 Sudoeste 0.8 -- -- 95
2021-02-08 02:00:00 5 17 Sudoeste 28 Sudoeste 1.6 -- -- 95
2021-02-08 01:00:00 4.6 14 Sudoeste 29 Sudoeste 0.6 -- -- 95
2021-02-08 00:00:00 4.4 15 Sudoeste 27 Sudoeste 0.2 -- -- 95
2021-02-07 23:00:00 4.1 11 Sudoeste 24 Sudoeste 0 -- -- 93
2021-02-07 22:00:00 4.1 13 Sudoeste 27 Sudoeste 0 -- -- 92
2021-02-07 21:00:00 3.9 16 Sudoeste 32 Sudoeste 0 -- -- 92
2021-02-07 20:00:00 3.7 17 Sudoeste 35 Sudoeste 0 -- -- 91
2021-02-07 19:00:00 3.4 13 Sudoeste 32 Sudoeste 0.4 -- -- 91
2021-02-07 18:00:00 4 19 Sudoeste 32 Oeste 0 -- -- 82
2021-02-07 17:00:00 5 17 Sudoeste 32 Sudoeste 0 -- -- 81
2021-02-07 16:00:00 5.8 19 Oeste 33 Oeste 0 -- -- 71
2021-02-07 15:00:00 5.9 16 Oeste 33 Oeste 0 -- -- 73
2021-02-07 14:00:00 5.5 16 Sudoeste 30 Sudoeste 0 -- -- 72
2021-02-07 13:00:00 5.6 13 Oeste 23 Oeste 0 -- -- 73
2021-02-07 12:00:00 4.6 12 Sudoeste 23 Sudoeste 0 -- -- 81
2021-02-07 11:00:00 3.1 8 Sudoeste 17 Sudoeste 0 -- -- 87
2021-02-07 10:00:00 0.6 3 Sudoeste 7 Sudoeste 0 -- -- 96
2021-02-07 09:00:00 -1.4 0 Calma 3 Oeste 0 -- -- 96
2021-02-07 08:00:00 -1.4 0 Calma 4 Oeste 0 -- -- 95
2021-02-07 07:00:00 -1.3 0 Calma 3 Sudoeste 0 -- -- 94
2021-02-07 06:00:00 -0.8 0 Calma 9 Sudoeste 0 -- -- 93
2021-02-07 05:00:00 -0.5 2 Nordeste 4 Nordeste 0 -- -- 92
2021-02-07 04:00:00 0.4 0 Calma 6 Sudoeste 0 -- -- 90
2021-02-07 03:00:00 1.7 5 Este 14 Este 0 -- -- 87
2021-02-07 02:00:00 1 5 Nordeste 7 Nordeste 0 -- -- 93
2021-02-07 01:00:00 1.1 3 Nordeste 14 Este 0 -- -- 89
2021-02-07 00:00:00 2.6 8 Este 13 Nordeste 0 -- -- 88
2021-02-06 23:00:00 3 6 Nordeste 18 Nordeste 0 -- -- 88
2021-02-06 22:00:00 3.2 8 Nordeste 22 Nordeste 0 -- -- 87
2021-02-06 21:00:00 3.5 15 Nordeste 28 Nordeste 0 -- -- 85
2021-02-06 20:00:00 3.7 14 Nordeste 23 Nordeste 0 -- -- 87
2021-02-06 19:00:00 4.5 10 Nordeste 19 Nordeste 0 -- -- 88
2021-02-06 18:00:00 5 12 Este 26 Nordeste 0 -- -- 89
2021-02-06 17:00:00 5.5 15 Nordeste 31 Nordeste 0.2 -- -- 88
2021-02-06 16:00:00 5.5 11 Nordeste 24 Nordeste 0.4 -- -- 92
2021-02-06 15:00:00 5.2 13 Nordeste 24 Nordeste 0.6 -- -- 91
2021-02-06 14:00:00 5.2 10 Nordeste 31 Nordeste 1 -- -- 92
2021-02-06 13:00:00 5.6 17 Nordeste 32 Nordeste 0.2 -- -- 88
2021-02-06 12:00:00 5.8 12 Nordeste 30 Nordeste 0 -- -- 89
2021-02-06 11:00:00 5.6 14 Nordeste 28 Nordeste 0 -- -- 87
2021-02-06 10:00:00 5.2 14 Nordeste 26 Nordeste 0 -- -- 88
2021-02-06 09:00:00 5.1 13 Nordeste 22 Nordeste 0.2 -- -- 89
2021-02-06 08:00:00 5.2 8 Nordeste 19 Nordeste 0.6 -- -- 92
2021-02-06 07:00:00 5.7 14 Nordeste 28 Nordeste 1 -- -- 93
2021-02-06 06:00:00 6.4 15 Nordeste 27 Nordeste 3.6 -- -- 94
2021-02-06 05:00:00 6.9 14 Nordeste 30 Nordeste 0.8 -- -- 93
2021-02-06 04:00:00 7.5 12 Nordeste 24 Nordeste 0 -- -- 94
2021-02-06 03:00:00 7.9 12 Este 21 Este 0 -- -- 94
2021-02-06 02:00:00 7.6 13 Nordeste 23 Nordeste 0.2 -- -- 94
2021-02-06 01:00:00 8 8 Nordeste 18 Este 0.8 -- -- 92
2021-02-06 00:00:00 8.6 13 Este 34 Este 0.4 -- -- 89
2021-02-05 23:00:00 8.3 14 Nordeste 28 Este 0 -- -- 90
2021-02-05 22:00:00 8.3 15 Nordeste 37 Nordeste 0 -- -- 89
2021-02-05 21:00:00 8.8 19 Nordeste 33 Nordeste 0 -- -- 87
2021-02-05 20:00:00 9.1 19 Nordeste 36 Nordeste 0 -- -- 86
2021-02-05 19:00:00 9.6 18 Nordeste 32 Nordeste 0 -- -- 85
2021-02-05 18:00:00 10.1 16 Nordeste 33 Nordeste 0 -- -- 81
2021-02-05 17:00:00 10.9 16 Nordeste 31 Nordeste 0 -- -- 79
2021-02-05 16:00:00 12.7 13 Nordeste 24 Nordeste 0 -- -- 75
2021-02-05 15:00:00 12.7 12 Nordeste 23 Nordeste 0 -- -- 75
2021-02-05 14:00:00 11.4 9 Norte 14 Norte 0 -- -- 83
2021-02-05 13:00:00 10.8 8 Norte 14 Norte 0 -- -- 88
2021-02-05 12:00:00 8.7 0 Calma 5 Oeste 0.2 -- -- 93
2021-02-05 11:00:00 8.4 3 Oeste 7 Norte 0.6 -- -- 92
2021-02-05 10:00:00 8 4 Norte 16 Nordeste 0 -- -- 94
2021-02-05 09:00:00 6.7 6 Nordeste 16 Nordeste 0.2 -- -- 96
2021-02-05 08:00:00 5.6 3 Nordeste 17 Este 0 -- -- 96
2021-02-05 07:00:00 5.5 11 Nordeste 20 Este 0.4 -- -- 97
2021-02-05 06:00:00 5.1 2 Nordeste 6 Nordeste 0 -- -- 97
2021-02-05 05:00:00 5.2 5 Nordeste 14 Este 0.2 -- -- 96
2021-02-05 04:00:00 5 5 Este 12 Este 0 -- -- 97
2021-02-05 03:00:00 5 2 Nordeste 6 Nordeste 0 -- -- 96
2021-02-05 02:00:00 5.2 4 Norte 10 Este 0.2 -- -- 96
2021-02-05 01:00:00 5.1 3 Este 7 Este 0 -- -- 96
2021-02-05 00:00:00 4.9 2 Noroeste 4 Noroeste 0 -- -- 95
2021-02-04 23:00:00 4.6 0 Calma 5 Noroeste 0 -- -- 95
2021-02-04 22:00:00 5.2 3 Sudoeste 8 Oeste 0 -- -- 94
2021-02-04 21:00:00 5.9 3 Sudeste 7 Este 0 -- -- 95
2021-02-04 20:00:00 5.8 0 Calma 9 Este 0.2 -- -- 94
2021-02-04 19:00:00 5.8 5 Este 10 Noroeste 0.2 -- -- 93
2021-02-04 18:00:00 5.8 7 Norte 15 Norte 0.4 -- -- 93
2021-02-04 17:00:00 6 10 Norte 22 Norte 0.2 -- -- 91
2021-02-04 16:00:00 6.3 15 Norte 25 Noroeste 0.8 -- -- 92
2021-02-04 15:00:00 6.7 13 Norte 21 Noroeste 2.2 -- -- 93
2021-02-04 14:00:00 7.4 5 Norte 17 Norte 0.4 -- -- 90
2021-02-04 13:00:00 8.4 11 Norte 17 Norte 0 -- -- 85
2021-02-04 12:00:00 8.9 0 Calma 4 Sur 0 -- -- 85
2021-02-04 11:00:00 8.3 0 Calma 5 Sudeste 0 -- -- 91
2021-02-04 10:00:00 7.4 0 Calma 9 Sudeste 0.2 -- -- 95
2021-02-04 09:00:00 7 0 Calma 5 Sudoeste 0 -- -- 94
2021-02-04 08:00:00 7.3 8 Sudoeste 13 Sudoeste 0 -- -- 93
2021-02-04 07:00:00 7.4 3 Sudoeste 8 Sudoeste 0 -- -- 93
2021-02-04 06:00:00 7.7 4 Sudoeste 9 Sur 0.4 -- -- 92
2021-02-04 05:00:00 7.7 3 Sudoeste 13 Sudoeste 0 -- -- 90
2021-02-04 04:00:00 8.1 6 Sudoeste 13 Sur 0 -- -- 91
2021-02-04 03:00:00 8.2 7 Sudoeste 16 Sudoeste 0 -- -- 90
2021-02-04 02:00:00 8.3 13 Sudoeste 22 Sudoeste 0 -- -- 88
2021-02-04 01:00:00 8.4 11 Sudoeste 23 Sur 0 -- -- 86
2021-02-04 00:00:00 8.3 13 Sudoeste 27 Sudoeste 0 -- -- 87
2021-02-03 23:00:00 8.4 15 Sudoeste 32 Sur 0 -- -- 84
2021-02-03 22:00:00 8.8 15 Sudoeste 30 Sur 0.2 -- -- 82
2021-02-03 21:00:00 8.7 13 Sudoeste 30 Sur 0 -- -- 85
2021-02-03 20:00:00 9.6 16 Sudoeste 33 Sur 0.2 -- -- 77
2021-02-03 19:00:00 9.1 13 Sur 22 Sur 0 -- -- 85
2021-02-03 18:00:00 9.5 9 Sudoeste 30 Sudoeste 0 -- -- 81
2021-02-03 17:00:00 9.9 22 Sudoeste 40 Sudoeste 0 -- -- 77
2021-02-03 16:00:00 11.4 19 Sudoeste 33 Sudoeste 0 -- -- 72
2021-02-03 15:00:00 11 22 Sudoeste 38 Sudoeste 0 -- -- 73
2021-02-03 14:00:00 10.4 21 Oeste 35 Oeste 0 -- -- 75
2021-02-03 13:00:00 10.4 18 Sudoeste 41 Sudoeste 0 -- -- 79
2021-02-03 12:00:00 9.8 20 Sudoeste 53 Sudoeste 0 -- -- 82
2021-02-03 11:00:00 10 23 Sudoeste 42 Sudoeste 0 -- -- 84
2021-02-03 10:00:00 8.8 18 Sudoeste 42 Sudoeste 0.2 -- -- 90
2021-02-03 09:00:00 8.4 24 Sudoeste 45 Sudoeste 0.2 -- -- 91
2021-02-03 08:00:00 8.8 25 Sudoeste 41 Sudoeste 0 -- -- 87
2021-02-03 07:00:00 9.2 25 Sudoeste 45 Sudoeste 0 -- -- 84
2021-02-03 06:00:00 9.4 26 Sudoeste 41 Sudoeste 0 -- -- 82
2021-02-03 05:00:00 9.1 22 Sudoeste 43 Sudoeste 0 -- -- 81
2021-02-03 04:00:00 9 23 Sudoeste 51 Sudoeste 0 -- -- 81
2021-02-03 03:00:00 9.1 25 Sudoeste 51 Sudoeste 0 -- -- 78
2021-02-03 02:00:00 9 23 Sudoeste 40 Sur 0 -- -- 78
2021-02-03 01:00:00 9.8 22 Sudoeste 46 Sur 0 -- -- 75
2021-02-03 00:00:00 9.8 22 Sudoeste 46 Sudoeste 0 -- -- 74